Ruby Airport
PARY : now visible

Airfield :











YOU CAN JOIN US ON...

 
LOGIN :

Register | Disclaimer

   EN    FR    IT 

 









Legend :    VFR   Marginal VFR   IFR   Intensive IFR   Very Intensive IFR
Visi :
Ceiling :
>= 8 km
>= 3000ft
5 to 8 km
1000 to 3000 ft
1500m to 5 km
500 to 1000 ft
800 to 1500m
200 to 500 ft
< 800m
< 200 ft
Symbols :   Thunderstorms  Fog  Heavy snow  Heavy precipitations  Wind > 20 kt






- Airport Elevation : 658 ft
- IATA code : RBY


PARY - Ruby

CURRENT METAR :
  • 010656Z AUTO 22005KT 2SM RA BR OVC022 14/13 A2988 RMK AO2 VIS 1 3/4V4 SLP124 P0010 T01390133

EXPIRED METARs :
  • 010635Z AUTO VRB04KT 2SM RA BR SCT004 BKN017 OVC022 14/13 A2988 RMK AO2 P0007
  • 010628Z AUTO 24008KT 210V270 1 3/4SM -RA BR SCT006 BKN011 OVC017 14/13 A2988 RMK AO2 P0006
  • 010612Z AUTO 26004KT 2SM RA BR SCT003 BKN006 OVC013 14/13 A2987 RMK AO2 VIS 1 1/2V5 P0002
  • 010556Z AUTO VRB05KT 6SM -RA BR OVC015 15/13 A2987 RMK AO2 RAB49 SLP120 P0000 60000 T01500133 10161 20150 53013
  • 010456Z AUTO 18010G14KT 150V230 10SM OVC017 16/13 A2985 RMK AO2 SLP113 T01560133

TAF N/A
PAZA FIR / North America



MET'MAP, your aeronautical weather chart ! - Copyright ORBIFLY December 2007 - Disclaimer

ORBIFLY MET'MAP TEAM :

Programming & Development : Alexandra Zaïnal
Concept & original design : Baudouin d'Aumeries
Assistance for programming : Marc-Olivier Méhu
Technical & hardware support : Manuel Goepfert

Contact : metmap@orbifly.com




SOURCES & CREDITS :

   NOAA       Earth
Advisory